LKCV weather

Čáslav Air Base
Čáslav, Central Bohemian Region, Czech Republic

Public forecast

Using degrees Celsius for public forecast. Weather courtesy of forecast.io.

Current aviation weather report (METAR) for Čáslav Air Base

Retrieved 2020/01/23 07:00 UTC (33 minutes ago):

LKCV 230700Z VRB02KT 6000 OVC030 00/M00 Q1035 NOSIG RMK WHT WHT

Aviation forecast (TAF) for Čáslav Air Base

Retrieved 2020/01/23 06:06 UTC (1 hour ago):

TAF COR LKCV 230500Z 2306/2406 VRB02KT 9999 BKN030 TEMPO 2306/2315 BKN010 PROB30 TEMPO 2306/2310 3000 BR BKN005 BECMG 2312/2315 12005KT BECMG 2315/2318 CAVOK TEMPO 2400/2406 BKN010